Time;durP1;ratioP1;P1;durP2;ratioP2;P2;SDS_P1;SDS_P2;PMS_P1;PMS_P2;Temp;Humidity;BMP_temperature;BMP_pressure;BME280_temperature;BME280_humidity;BME280_pressure;Samples;Min_cycle;Max_cycle;Signal;HPM_P1;HPM_P2
2022/09/07 00:01:16;;;;;;;6.07;3.63;;;;;;;8.76;67.47;99519.41;4835296;29;20201;-95
2022/09/07 00:03:48;;;;;;;9.18;4.20;;;;;;;8.96;67.84;99551.78;4847462;29;20041;-96
2022/09/07 00:08:45;;;;;;;6.20;3.70;;;;;;;8.91;67.65;99521.91;4862467;29;20085;-94
2022/09/07 00:11:18;;;;;;;7.57;4.25;;;;;;;8.83;67.87;99509.72;4831868;29;20082;-93
2022/09/07 00:14:11;;;;;;;6.68;3.92;;;;;;;8.95;68.46;99522.91;4846870;29;20194;-95
2022/09/07 00:17:23;;;;;;;7.80;3.80;;;;;;;9.35;68.32;99567.00;4846718;29;20045;-93
2022/09/07 00:21:06;;;;;;;7.85;4.22;;;;;;;8.88;68.44;99495.22;4862305;29;20189;-95
2022/09/07 00:24:09;;;;;;;8.50;4.20;;;;;;;9.01;68.39;99493.66;4812314;29;20064;-95
2022/09/07 00:26:47;;;;;;;6.55;4.00;;;;;;;9.43;68.11;99569.03;4846856;29;20127;-95
2022/09/07 00:29:33;;;;;;;6.07;3.50;;;;;;;9.20;67.83;99518.94;4847081;29;20077;-91
2022/09/07 00:32:03;;;;;;;6.53;3.70;;;;;;;9.07;67.66;99492.44;4849588;29;20466;-90
2022/09/07 00:34:31;;;;;;;8.68;4.20;;;;;;;9.03;68.09;99489.50;4848787;29;20065;-91
2022/09/07 00:37:19;;;;;;;;;;;;;;;;;;;;;
2022/09/07 00:44:13;;;;;;;;;;;;;;;9.43;68.17;99555.38;4868562;29;20048;-93
2022/09/07 00:46:49;;;;;;;;;;;;;;;;;;;;;
2022/09/07 00:54:41;;;;;;;8.65;4.18;;;;;;;9.21;68.23;99515.13;4939068;29;20040;-94
2022/09/07 00:57:31;;;;;;;;;;;;;;;;;;;;;
2022/09/07 01:00:01;;;;;;;8.13;4.20;;;;;;;9.29;67.83;99516.34;4937829;29;20039;-92
2022/09/07 01:02:29;;;;;;;6.45;4.00;;;;;;;9.09;68.21;99482.06;4921768;29;20054;-93
2022/09/07 01:05:14;;;;;;;8.27;4.15;;;;;;;8.94;68.14;99464.06;4906232;29;20040;-93
2022/09/07 01:08:15;;;;;;;8.50;3.97;;;;;;;9.12;67.42;99487.72;4884279;29;20048;-92
2022/09/07 01:11:09;;;;;;;8.18;3.85;;;;;;;9.33;68.23;99520.91;4950907;29;20055;-94
2022/09/07 01:13:37;;;;;;;6.40;3.78;;;;;;;8.98;67.27;99456.09;4909050;29;20047;-92
2022/09/07 01:16:34;;;;;;;5.55;3.70;;;;;;;9.48;67.68;99522.56;4920588;29;20063;-91
2022/09/07 01:19:35;;;;;;;6.15;3.95;;;;;;;9.03;67.71;99481.31;4932509;29;20133;-95
2022/09/07 01:22:33;;;;;;;7.65;3.63;;;;;;;9.43;67.90;99530.03;4925387;29;20548;-95
2022/09/07 01:25:47;;;;;;;6.97;3.72;;;;;;;9.45;67.17;99525.88;4890422;29;20043;-94
2022/09/07 01:28:48;;;;;;;6.97;4.40;;;;;;;9.34;67.60;99499.91;4939859;29;20040;-94
2022/09/07 01:31:45;;;;;;;;;;;;;;;;;;;;;
2022/09/07 01:34:52;;;;;;;9.10;3.78;;;;;;;8.92;67.69;99456.16;4938393;29;20405;-94
2022/09/07 01:38:10;;;;;;;;;;;;;;;;;;;;;
2022/09/07 01:45:15;;;;;;;8.32;3.95;;;;;;;9.00;67.56;99472.94;4902087;29;20048;-96
2022/09/07 01:48:12;;;;;;;8.98;4.25;;;;;;;8.82;67.55;99445.41;4893761;29;20048;-94
2022/09/07 01:51:00;;;;;;;5.70;3.58;;;;;;;8.79;67.31;99434.31;4903818;29;20056;-94
2022/09/07 02:02:58;;;;;;;7.50;3.45;;;;;;;9.23;67.90;99507.44;4786704;29;20105;-95
2022/09/07 02:06:10;;;;;;;9.23;4.25;;;;;;;8.73;67.82;99433.56;4787681;30;20047;-93
2022/09/07 02:08:54;;;;;;;7.07;3.63;;;;;;;8.93;68.00;99476.84;4772681;30;20043;-94
2022/09/07 02:11:32;;;;;;;7.35;3.78;;;;;;;8.60;67.99;99428.88;4772683;30;20051;-94
2022/09/07 02:14:09;;;;;;;7.20;3.90;;;;;;;8.89;67.98;99478.56;4772491;30;20055;-94
2022/09/07 02:16:54;;;;;;;8.90;3.90;;;;;;;8.53;68.02;99429.25;4772825;30;20149;-93
2022/09/07 02:19:23;;;;;;;6.63;4.13;;;;;;;8.59;67.75;99428.06;4775877;29;20074;-93
2022/09/07 02:22:25;;;;;;;12.75;4.07;;;;;;;8.84;68.32;99484.09;4792083;29;20053;-94
2022/09/07 02:24:53;;;;;;;6.97;4.00;;;;;;;8.55;68.44;99437.97;4840552;29;20474;-93
2022/09/07 02:27:41;;;;;;;8.80;3.85;;;;;;;8.38;68.03;99405.81;4848370;29;20072;-93
2022/09/07 02:30:13;;;;;;;7.78;4.00;;;;;;;8.67;68.13;99451.91;4848780;29;20423;-93
2022/09/07 02:32:41;;;;;;;8.18;4.20;;;;;;;8.79;68.33;99469.75;4838201;29;20050;-94
2022/09/07 02:37:40;;;;;;;5.57;3.80;;;;;;;8.70;68.51;99467.69;4866245;29;20121;-94
2022/09/07 02:40:07;;;;;;;8.93;3.80;;;;;;;8.73;68.53;99477.19;4918350;29;20070;-89
2022/09/07 02:42:35;;;;;;;6.35;4.10;;;;;;;8.38;69.09;99433.03;4925843;29;20141;-89
2022/09/07 02:45:07;;;;;;;12.60;4.50;;;;;;;8.33;68.90;99415.94;4930348;29;20031;-92
2022/09/07 02:47:54;;;;;;;6.43;4.03;;;;;;;8.46;68.55;99435.09;4931821;29;20537;-92
2022/09/07 02:50:39;;;;;;;;;;;;;;;8.87;68.83;99494.41;4943100;29;20050;-91
2022/09/07 02:53:26;;;;;;;7.05;4.13;;;;;;;8.96;68.52;99493.72;4942021;29;19988;-92
2022/09/07 02:56:34;;;;;;;6.85;4.07;;;;;;;8.46;68.72;99428.84;4939123;28;20059;-94
2022/09/07 02:59:12;;;;;;;6.60;3.83;;;;;;;8.75;68.56;99479.63;4948973;29;20134;-92
2022/09/07 03:01:54;;;;;;;8.75;4.50;;;;;;;8.91;68.78;99494.63;4923242;29;20524;-93
2022/09/07 03:04:53;;;;;;;6.25;4.00;;;;;;;8.75;69.10;99487.81;4961500;29;20050;-95
2022/09/07 03:16:44;;;;;;;6.35;3.95;;;;;;;8.20;69.44;99406.56;4824713;29;20052;-94
2022/09/07 03:19:45;;;;;;;12.13;4.85;;;;;;;8.49;69.60;99447.31;4793338;29;20042;-95
2022/09/07 03:22:43;;;;;;;7.05;4.50;;;;;;;8.51;69.32;99430.66;4804191;29;20051;-94
2022/09/07 03:25:27;;;;;;;6.32;3.90;;;;;;;8.27;69.12;99381.69;4789553;29;20059;-94
2022/09/07 03:27:53;;;;;;;6.65;4.03;;;;;;;8.35;68.84;99400.91;4774717;29;20050;-94
2022/09/07 03:30:20;;;;;;;7.20;4.10;;;;;;;8.77;69.03;99455.59;4773859;29;20082;-92
2022/09/07 03:32:46;;;;;;;5.93;3.70;;;;;;;8.50;68.90;99427.13;4807243;29;20323;-94
2022/09/07 03:47:56;;;;;;;9.77;4.60;;;;;;;8.84;68.58;99435.03;4902883;29;20055;-94
2022/09/07 03:55:22;;;;;;;8.95;4.18;;;;;;;8.72;68.80;99412.88;4936745;29;20043;-94
2022/09/07 04:02:46;;;;;;;8.80;4.28;;;;;;;8.90;68.51;99422.13;4938204;29;20088;-91
2022/09/07 04:07:41;;;;;;;8.55;4.30;;;;;;;9.20;68.46;99458.94;4954082;29;20047;-92
2022/09/07 04:10:08;;;;;;;9.60;4.47;;;;;;;8.75;68.56;99398.66;4912579;29;20077;-94
2022/09/07 04:12:36;;;;;;;6.90;4.27;;;;;;;8.70;68.42;99382.38;4923988;29;20047;-96
2022/09/07 04:15:05;;;;;;;7.90;4.47;;;;;;;8.79;68.68;99407.84;4922265;29;20295;-91
2022/09/07 04:20:00;;;;;;;6.93;4.00;;;;;;;8.89;67.79;99406.88;4955841;28;20058;-89
2022/09/07 04:22:29;;;;;;;13.23;4.93;;;;;;;8.90;68.35;99431.09;4937827;29;20051;-94
2022/09/07 04:25:08;;;;;;;10.43;4.57;;;;;;;8.83;68.86;99422.50;4908965;29;20043;-95
2022/09/07 04:27:34;;;;;;;13.40;4.22;;;;;;;8.76;68.91;99413.91;4918029;29;20071;-92
2022/09/07 04:30:03;;;;;;;13.88;5.00;;;;;;;8.63;68.79;99385.50;4925402;29;20036;-91
2022/09/07 04:32:29;;;;;;;15.63;4.97;;;;;;;8.70;68.58;99375.00;4939750;29;20035;-88
2022/09/07 04:34:55;;;;;;;13.07;5.00;;;;;;;8.98;68.58;99426.09;4923763;29;20051;-89
2022/09/07 04:37:21;;;;;;;11.40;4.68;;;;;;;8.72;68.31;99384.81;4924136;29;20043;-94
2022/09/07 04:39:48;;;;;;;11.80;4.65;;;;;;;8.79;68.36;99401.59;4924749;29;20074;-94
2022/09/07 04:42:14;;;;;;;13.40;5.73;;;;;;;8.76;68.43;99396.75;4940684;29;20039;-92
2022/09/07 04:44:40;;;;;;;9.90;5.05;;;;;;;8.80;68.22;99403.22;4924718;29;20378;-93
2022/09/07 04:47:07;;;;;;;7.68;4.63;;;;;;;8.73;68.49;99386.44;4946678;28;20043;-91
2022/09/07 04:52:02;;;;;;;33.63;5.55;;;;;;;9.11;68.56;99425.31;4952652;29;20306;-91
2022/09/07 04:57:20;;;;;;;7.13;3.63;;;;;;;9.18;67.57;99407.44;4956755;29;20058;-93
2022/09/07 05:09:46;;;;;;;6.53;3.85;;;;;;;9.24;66.85;99363.69;4957437;29;20117;-91
2022/09/07 05:14:47;;;;;;;8.50;3.90;;;;;;;9.65;66.15;99423.72;4957136;29;20078;-92
2022/09/07 05:17:13;;;;;;;11.82;4.13;;;;;;;9.61;66.07;99420.78;4940778;29;20039;-93
2022/09/07 05:19:39;;;;;;;8.00;4.15;;;;;;;9.58;65.75;99382.38;4939390;29;20035;-92
2022/09/07 05:22:05;;;;;;;7.97;4.30;;;;;;;9.92;65.74;99416.63;4940306;29;20039;-93
2022/09/07 05:24:35;;;;;;;6.07;3.88;;;;;;;9.80;65.11;99377.00;4941286;29;20051;-92
2022/09/07 05:29:31;;;;;;;9.07;3.83;;;;;;;10.29;63.86;99427.28;4958601;29;20043;-89
2022/09/07 05:31:57;;;;;;;9.32;4.10;;;;;;;10.40;64.13;99414.19;4924237;29;20043;-91
2022/09/07 05:39:21;;;;;;;8.15;4.07;;;;;;;10.04;63.60;99365.81;4938217;29;20048;-92
2022/09/07 05:44:15;;;;;;;8.57;3.80;;;;;;;10.11;63.91;99374.38;4959673;29;20122;-92
2022/09/07 05:46:42;;;;;;;5.90;4.33;;;;;;;10.20;63.41;99370.91;4938175;29;20031;-90
2022/09/07 05:49:10;;;;;;;8.52;4.30;;;;;;;10.36;64.31;99407.72;4918808;29;20055;-93
2022/09/07 05:56:38;;;;;;;8.88;4.78;;;;;;;10.93;62.64;99394.28;4916678;29;20052;-92
2022/09/07 05:59:04;;;;;;;14.85;4.20;;;;;;;10.93;62.91;99382.56;4885157;29;20044;-92
2022/09/07 06:01:30;;;;;;;8.10;4.47;;;;;;;11.11;62.32;99408.06;4870389;29;20582;-89
2022/09/07 06:03:57;;;;;;;12.13;4.50;;;;;;;11.06;62.99;99400.81;4900270;29;20056;-91
2022/09/07 06:06:23;;;;;;;5.43;4.03;;;;;;;10.88;62.43;99369.81;4886913;29;20048;-90
2022/09/07 06:09:11;;;;;;;8.25;4.50;;;;;;;11.08;62.35;99384.06;4887349;29;20143;-93
2022/09/07 06:14:24;;;;;;;8.82;4.32;;;;;;;11.42;61.27;99408.88;4916129;29;20066;-91
2022/09/07 06:16:53;;;;;;;8.18;4.68;;;;;;;11.36;61.38;99392.91;4900095;29;20474;-90
2022/09/07 06:19:19;;;;;;;7.70;4.30;;;;;;;11.47;61.43;99380.53;4898543;29;20044;-87
2022/09/07 06:21:48;;;;;;;10.57;4.75;;;;;;;11.72;61.05;99400.88;4884001;29;20044;-91
2022/09/07 06:24:14;;;;;;;6.15;4.47;;;;;;;11.46;60.50;99378.91;4868536;29;20032;-89
2022/09/07 06:26:41;;;;;;;10.43;4.45;;;;;;;11.33;60.86;99380.66;4906187;29;20070;-92
2022/09/07 06:29:08;;;;;;;10.15;4.97;;;;;;;11.63;61.14;99430.19;4922909;29;20043;-91
2022/09/07 06:31:35;;;;;;;11.15;4.72;;;;;;;11.37;61.18;99389.84;4906900;29;20043;-91
2022/09/07 06:34:01;;;;;;;10.77;4.82;;;;;;;11.44;61.42;99412.06;4939033;29;20098;-93
2022/09/07 06:36:27;;;;;;;9.13;4.70;;;;;;;11.57;61.30;99420.50;4924317;29;20047;-90
2022/09/07 06:38:58;;;;;;;11.25;4.43;;;;;;;11.71;60.38;99430.19;4905054;29;20091;-93
2022/09/07 06:41:29;;;;;;;18.25;5.38;;;;;;;11.48;60.44;99393.88;4904039;29;20055;-92
2022/09/07 06:43:56;;;;;;;8.57;4.80;;;;;;;11.50;60.71;99405.34;4921121;29;20462;-88
2022/09/07 06:46:23;;;;;;;8.27;4.53;;;;;;;11.63;60.88;99406.34;4934534;29;20135;-88
2022/09/07 06:49:08;;;;;;;;;;;;;;;11.80;60.75;99419.28;4937033;29;20050;-88
2022/09/07 06:51:34;;;;;;;6.32;4.20;;;;;;;11.64;60.73;99390.72;4934802;29;19922;-87
2022/09/07 06:54:04;;;;;;;11.48;4.63;;;;;;;11.51;60.88;99382.31;4940424;29;20047;-88
2022/09/07 06:56:30;;;;;;;;;;;;;;;11.89;60.10;99419.34;4926509;29;20465;-89
2022/09/07 06:58:58;;;;;;;10.87;4.50;;;;;;;11.97;59.44;99413.84;4938473;29;19927;-88
2022/09/07 07:01:25;;;;;;;12.82;4.75;;;;;;;11.98;60.10;99379.03;4937715;29;20051;-90
2022/09/07 07:03:53;;;;;;;10.38;3.67;;;;;;;12.13;59.51;99380.53;4938011;29;20520;-94
2022/09/07 07:06:20;;;;;;;15.85;4.35;;;;;;;12.23;59.47;99383.75;4923318;29;20079;-92
2022/09/07 07:08:47;;;;;;;10.52;4.47;;;;;;;12.26;59.21;99368.59;4922148;29;20043;-93
2022/09/07 07:11:15;;;;;;;8.52;4.00;;;;;;;12.48;58.17;99381.31;4922428;29;20485;-94
2022/09/07 07:13:45;;;;;;;8.07;3.88;;;;;;;12.38;57.71;99346.84;4922561;29;20035;-92
2022/09/07 07:16:14;;;;;;;7.82;3.63;;;;;;;12.60;57.16;99362.28;4922077;29;20039;-91
2022/09/07 07:21:59;;;;;;;4.95;3.55;;;;;;;12.56;55.42;99364.06;4955663;29;20138;-89
2022/09/07 07:24:25;;;;;;;7.20;3.60;;;;;;;12.56;55.58;99386.00;4937809;29;20082;-89
2022/09/07 07:26:51;;;;;;;5.75;3.47;;;;;;;12.44;55.28;99374.88;4954434;29;20053;-93
2022/09/07 07:29:20;;;;;;;13.87;3.40;;;;;;;12.30;55.17;99355.84;4938360;29;20050;-90
2022/09/07 07:36:43;;;;;;;8.65;3.80;;;;;;;12.36;55.68;99376.50;4954455;29;20130;-90
2022/09/07 07:39:09;;;;;;;7.20;3.22;;;;;;;12.44;56.02;99394.88;4920263;29;20027;-88
2022/09/07 07:41:36;;;;;;;11.55;3.72;;;;;;;12.43;56.40;99379.56;4938783;29;20054;-87
2022/09/07 07:44:02;;;;;;;10.07;3.33;;;;;;;12.42;57.16;99366.97;4936603;29;20039;-89
2022/09/07 07:46:29;;;;;;;11.23;3.00;;;;;;;12.48;55.94;99362.13;4936202;29;20083;-91
2022/09/07 07:48:55;;;;;;;7.35;3.65;;;;;;;12.59;55.52;99368.91;4935261;29;20349;-89
2022/09/07 07:51:22;;;;;;;4.30;2.97;;;;;;;12.61;55.82;99357.59;4949256;29;20414;-89
2022/09/07 07:53:48;;;;;;;5.38;3.53;;;;;;;12.75;54.80;99355.47;4939122;29;20067;-91
2022/09/07 07:58:44;;;;;;;10.90;3.92;;;;;;;13.13;55.23;99395.88;4955757;29;20027;-91
2022/09/07 08:01:13;;;;;;;5.03;3.72;;;;;;;13.02;55.26;99356.22;4924989;29;20089;-92
2022/09/07 08:03:42;;;;;;;11.07;3.63;;;;;;;13.22;54.03;99371.16;4910047;29;20054;-92
2022/09/07 08:06:12;;;;;;;9.55;4.30;;;;;;;13.42;53.71;99383.38;4923434;29;20036;-88
2022/09/07 08:08:39;;;;;;;6.50;3.83;;;;;;;13.32;53.63;99357.09;4940540;29;20051;-91
2022/09/07 08:11:07;;;;;;;5.60;3.17;;;;;;;13.68;53.20;99384.03;4910771;29;20150;-93
2022/09/07 08:13:39;;;;;;;7.45;3.00;;;;;;;13.45;51.59;99339.56;4941197;29;20045;-88
2022/09/07 08:16:06;;;;;;;6.70;3.03;;;;;;;13.56;52.92;99351.78;4940611;29;20417;-87
2022/09/07 08:18:34;;;;;;;5.25;3.72;;;;;;;13.48;51.88;99369.13;4939829;29;20039;-88
2022/09/07 08:21:07;;;;;;;7.65;3.72;;;;;;;13.45;52.38;99366.25;4925304;29;20046;-87
2022/09/07 08:23:33;;;;;;;6.85;3.20;;;;;;;13.23;52.32;99326.88;4901461;29;20044;-89
2022/09/07 08:26:00;;;;;;;5.22;3.65;;;;;;;13.63;52.34;99365.00;4901113;29;20056;-92
2022/09/07 08:28:28;;;;;;;4.70;3.22;;;;;;;13.63;51.15;99360.31;4901416;29;20150;-88
2022/09/07 08:30:56;;;;;;;4.63;2.75;;;;;;;13.44;51.83;99339.91;4905955;29;20040;-85
2022/09/07 08:33:23;;;;;;;6.70;2.70;;;;;;;13.43;51.32;99335.53;4900568;29;20048;-87
2022/09/07 08:35:57;;;;;;;8.13;2.63;;;;;;;13.34;51.88;99330.09;4890332;29;20052;-87
2022/09/07 08:43:47;;;;;;;6.15;3.00;;;;;;;13.47;51.42;99345.53;4916557;29;20146;-88
2022/09/07 08:46:42;;;;;;;4.50;2.90;;;;;;;13.44;51.47;99350.88;4916220;29;20052;-88
2022/09/07 08:49:46;;;;;;;4.00;2.60;;;;;;;13.50;51.26;99322.09;4915478;29;20794;-87
2022/09/07 08:52:49;;;;;;;4.63;2.70;;;;;;;13.36;51.34;99314.09;4896118;29;20139;-87
2022/09/07 08:55:31;;;;;;;6.35;2.78;;;;;;;13.57;51.32;99323.16;4915596;29;20048;-92
2022/09/07 08:58:19;;;;;;;7.47;3.17;;;;;;;13.69;51.54;99347.19;4899801;29;20527;-88
2022/09/07 09:00:48;;;;;;;4.40;2.85;;;;;;;13.80;50.85;99322.88;4931745;29;20406;-89
2022/09/07 09:03:26;;;;;;;12.23;3.05;;;;;;;13.92;50.12;99342.19;4938973;29;20557;-87
2022/09/07 09:06:32;;;;;;;17.33;3.25;;;;;;;13.90;49.54;99346.41;4938918;29;20051;-86
2022/09/07 09:09:11;;;;;;;7.57;3.10;;;;;;;13.91;49.79;99337.84;4935012;29;20138;-88
2022/09/07 09:11:43;;;;;;;12.82;3.55;;;;;;;13.80;49.68;99326.41;4954503;28;20049;-89
2022/09/07 09:14:38;;;;;;;8.40;3.25;;;;;;;13.90;48.00;99335.41;4938988;29;20039;-88
2022/09/07 09:17:11;;;;;;;9.88;3.25;;;;;;;13.69;47.18;99283.22;4955548;29;20079;-87
2022/09/07 09:20:09;;;;;;;7.93;3.22;;;;;;;13.80;46.47;99304.44;4949556;29;20080;-86
2022/09/07 09:22:35;;;;;;;6.68;2.97;;;;;;;13.92;45.98;99338.63;4922351;29;20042;-87
2022/09/07 09:25:17;;;;;;;18.30;4.60;;;;;;;14.04;46.17;99339.53;4938621;29;20080;-85
2022/09/07 09:27:44;;;;;;;19.98;5.32;;;;;;;14.04;46.28;99314.78;4938004;29;20535;-90
2022/09/07 09:30:31;;;;;;;9.80;3.50;;;;;;;14.11;45.89;99341.72;4940406;29;20043;-88
2022/09/07 09:33:17;;;;;;;;;;;;;;;14.09;46.68;99333.00;4927688;29;20043;-86
2022/09/07 09:35:48;;;;;;;5.38;2.90;;;;;;;13.63;47.47;99294.38;4922836;29;19930;-86
2022/09/07 09:38:34;;;;;;;10.10;4.00;;;;;;;13.97;47.07;99338.41;4920439;29;20043;-87
2022/09/07 09:41:14;;;;;;;13.77;2.65;;;;;;;13.60;47.11;99286.81;4954249;29;20111;-89
2022/09/07 09:43:51;;;;;;;9.90;3.78;;;;;;;13.84;47.52;99338.38;4922026;29;20051;-91
2022/09/07 09:46:24;;;;;;;7.57;2.65;;;;;;;13.50;46.58;99300.13;4923442;29;20569;-92
2022/09/07 09:48:58;;;;;;;13.02;3.30;;;;;;;13.43;46.47;99300.66;4923137;29;20038;-89
2022/09/07 09:51:28;;;;;;;6.90;2.72;;;;;;;13.54;46.26;99309.31;4935198;29;20091;-88
2022/09/07 09:54:15;;;;;;;6.97;3.08;;;;;;;13.78;46.69;99336.94;4951438;29;20410;-88
2022/09/07 09:56:45;;;;;;;8.57;3.28;;;;;;;13.40;47.13;99298.56;4912993;29;20071;-87
2022/09/07 09:59:19;;;;;;;11.65;3.10;;;;;;;13.58;47.85;99319.31;4929730;29;20134;-88
2022/09/07 10:04:22;;;;;;;3.85;2.67;;;;;;;13.66;47.95;99338.81;4950765;29;20126;-91
2022/09/07 10:07:18;;;;;;;4.97;2.60;;;;;;;13.66;47.47;99347.84;4910178;29;20050;-89
2022/09/07 10:09:51;;;;;;;7.55;2.60;;;;;;;13.58;47.83;99326.75;4930969;29;20055;-89
2022/09/07 10:12:27;;;;;;;4.18;2.50;;;;;;;13.73;47.63;99339.88;4904738;29;20554;-88
2022/09/07 10:14:55;;;;;;;10.02;3.30;;;;;;;14.15;47.31;99326.16;4903409;29;20043;-90
2022/09/07 10:17:34;;;;;;;5.30;2.60;;;;;;;14.26;47.16;99337.53;4904369;29;20095;-90
2022/09/07 10:20:20;;;;;;;9.75;3.40;;;;;;;14.50;46.51;99336.84;4920693;29;20046;-90
2022/09/07 10:22:52;;;;;;;6.97;2.53;;;;;;;14.38;46.56;99325.81;4922579;29;20050;-88
2022/09/07 10:25:38;;;;;;;7.93;3.10;;;;;;;14.48;46.96;99328.13;4937684;29;20040;-90
2022/09/07 10:28:16;;;;;;;5.45;2.70;;;;;;;14.22;46.44;99314.63;4922561;29;20042;-89
2022/09/07 10:31:01;;;;;;;4.18;2.63;;;;;;;14.19;46.90;99323.53;4922653;29;20050;-89
2022/09/07 10:33:36;;;;;;;3.60;2.28;;;;;;;14.23;46.04;99336.28;4954283;29;20055;-93
2022/09/07 10:36:40;;;;;;;10.80;2.30;;;;;;;14.13;46.38;99330.38;4922493;29;20509;-90
2022/09/07 10:39:14;;;;;;;4.65;2.33;;;;;;;14.27;46.61;99331.72;4858495;29;20078;-89
2022/09/07 10:41:58;;;;;;;7.38;2.72;;;;;;;14.31;46.70;99332.66;4858162;29;20052;-89
2022/09/07 10:44:56;;;;;;;16.52;3.03;;;;;;;14.25;46.87;99330.44;4844489;29;20045;-88
2022/09/07 10:47:43;;;;;;;14.65;2.40;;;;;;;14.30;45.48;99328.31;4826052;29;20054;-85
2022/09/07 10:50:31;;;;;;;5.30;2.35;;;;;;;14.34;46.25;99333.94;4851836;29;20595;-93
2022/09/07 10:53:13;;;;;;;5.25;3.10;;;;;;;14.31;47.34;99334.59;4860056;29;20495;-93
2022/09/07 10:55:59;;;;;;;4.40;2.78;;;;;;;14.24;47.08;99340.66;4858123;29;20109;-87
2022/09/07 10:58:33;;;;;;;5.75;2.97;;;;;;;14.16;47.36;99333.25;4844062;29;20132;-90
2022/09/07 11:01:32;;;;;;;3.40;2.28;;;;;;;13.79;47.83;99300.09;4842937;29;20080;-89
2022/09/07 11:04:35;;;;;;;8.32;2.10;;;;;;;14.00;48.25;99322.06;4812730;29;20140;-91
2022/09/07 11:07:16;;;;;;;9.00;2.60;;;;;;;14.14;47.96;99331.97;4829630;29;20057;-88
2022/09/07 11:09:58;;;;;;;4.50;2.67;;;;;;;14.10;49.10;99313.44;4847346;29;20503;-89
2022/09/07 11:12:30;;;;;;;5.18;2.85;;;;;;;13.66;49.15;99281.94;4857547;29;20512;-87
2022/09/07 11:15:12;;;;;;;7.20;3.30;;;;;;;13.69;49.94;99325.22;4881612;29;20054;-88
2022/09/07 11:17:49;;;;;;;6.47;2.47;;;;;;;13.49;51.25;99315.00;4953413;29;20046;-89
2022/09/07 11:20:32;;;;;;;8.32;3.85;;;;;;;13.21;53.95;99317.38;4929001;29;20481;-89
2022/09/07 11:23:22;;;;;;;4.80;2.83;;;;;;;12.85;55.11;99288.50;4933831;29;20054;-89
2022/09/07 11:26:13;;;;;;;14.80;2.85;;;;;;;12.92;56.87;99338.97;4936501;29;20047;-91
2022/09/07 11:29:09;;;;;;;21.05;8.60;;;;;;;12.66;58.50;99316.28;4929304;29;20190;-90
2022/09/07 11:31:42;;;;;;;24.50;6.75;;;;;;;12.61;59.01;99310.97;4939858;29;20212;-93
2022/09/07 11:34:21;;;;;;;10.45;4.97;;;;;;;12.74;58.88;99339.34;4919696;29;20047;-89
2022/09/07 11:36:57;;;;;;;10.68;4.88;;;;;;;12.49;60.73;99336.34;4921493;29;20058;-92
2022/09/07 11:39:53;;;;;;;9.82;5.13;;;;;;;12.17;61.65;99296.53;4921573;29;20053;-91
2022/09/07 11:42:51;;;;;;;8.25;3.30;;;;;;;12.10;62.20;99349.09;4932544;29;20047;-91
2022/09/07 11:45:40;;;;;;;8.70;3.42;;;;;;;11.78;63.99;99344.84;4921960;29;20601;-91
2022/09/07 11:48:16;;;;;;;8.85;3.28;;;;;;;11.64;64.45;99319.53;4904950;29;20052;-91
2022/09/07 11:53:49;;;;;;;6.28;3.67;;;;;;;11.71;66.72;99328.06;4921253;29;20059;-93
2022/09/07 11:56:28;;;;;;;14.98;5.93;;;;;;;11.39;65.62;99308.22;4936929;29;20485;-90
2022/09/07 11:59:07;;;;;;;7.93;3.75;;;;;;;11.43;66.73;99347.50;4920505;29;20042;-89
2022/09/07 12:02:02;;;;;;;12.80;8.15;;;;;;;11.58;68.20;99350.91;4934125;29;20047;-92
2022/09/07 12:05:03;;;;;;;4.88;3.45;;;;;;;11.24;68.09;99316.88;4937339;29;20043;-93
2022/09/07 12:07:32;;;;;;;7.53;3.30;;;;;;;11.49;68.72;99342.69;4902205;29;20063;-93
2022/09/07 12:10:18;;;;;;;6.10;3.85;;;;;;;11.34;68.75;99326.72;4920277;29;20056;-89
2022/09/07 12:13:10;;;;;;;7.60;3.92;;;;;;;11.49;69.57;99339.97;4936759;29;20513;-90
2022/09/07 12:16:04;;;;;;;5.35;3.30;;;;;;;11.42;69.25;99336.88;4887875;29;20039;-90
2022/09/07 12:18:52;;;;;;;4.53;2.90;;;;;;;11.45;69.23;99336.22;4933188;29;20050;-90
2022/09/07 12:21:40;;;;;;;8.82;2.70;;;;;;;11.26;69.46;99304.47;4936693;29;20067;-90
2022/09/07 12:24:31;;;;;;;4.43;2.50;;;;;;;11.42;69.79;99328.66;4920931;29;20540;-89
2022/09/07 12:26:59;;;;;;;5.95;3.05;;;;;;;11.48;69.73;99321.91;4916511;29;20103;-89
2022/09/07 12:29:27;;;;;;;4.70;2.55;;;;;;;11.49;70.03;99313.41;4915686;29;20585;-90
2022/09/07 12:31:56;;;;;;;4.20;2.60;;;;;;;11.37;69.25;99295.97;4900242;29;20047;-89
2022/09/07 12:34:29;;;;;;;5.32;2.55;;;;;;;11.53;69.42;99319.84;4931940;29;20059;-91
2022/09/07 12:37:09;;;;;;;4.82;2.70;;;;;;;11.37;69.68;99291.31;4916733;29;20661;-90
2022/09/07 12:39:38;;;;;;;4.38;2.80;;;;;;;11.53;69.63;99303.41;4934638;29;20604;-92
2022/09/07 12:42:04;;;;;;;5.07;3.00;;;;;;;11.68;69.64;99309.53;4932202;29;20058;-92
2022/09/07 12:44:32;;;;;;;5.70;3.17;;;;;;;11.61;70.08;99315.50;4900750;29;20194;-92
2022/09/07 12:47:00;;;;;;;5.32;3.15;;;;;;;11.61;70.62;99301.00;4886838;29;20080;-91
2022/09/07 12:49:58;;;;;;;6.43;3.17;;;;;;;11.55;70.78;99299.53;4920431;29;20038;-91
2022/09/07 12:52:48;;;;;;;8.38;3.50;;;;;;;11.56;71.44;99307.44;4936613;29;20052;-93
2022/09/07 12:55:17;;;;;;;7.15;3.80;;;;;;;11.50;71.12;99303.25;4911096;29;20051;-93
2022/09/07 12:58:09;;;;;;;7.07;3.50;;;;;;;11.45;70.32;99308.84;4937731;29;20099;-94
2022/09/07 13:01:02;;;;;;;6.30;3.55;;;;;;;11.26;69.72;99292.72;4906384;29;20543;-93
2022/09/07 13:03:34;;;;;;;6.60;3.60;;;;;;;11.29;71.02;99308.50;4907982;29;20509;-92
2022/09/07 13:06:40;;;;;;;9.45;3.83;;;;;;;11.33;71.18;99298.53;4925125;29;20057;-95
2022/09/07 13:09:33;;;;;;;6.57;3.40;;;;;;;11.22;70.80;99291.72;4924403;29;20074;-94
2022/09/07 13:12:03;;;;;;;10.70;3.55;;;;;;;11.28;71.20;99288.53;4921751;29;20095;-93
2022/09/07 13:14:35;;;;;;;6.22;3.90;;;;;;;11.24;71.98;99289.50;4890351;29;20047;-92
2022/09/07 13:17:26;;;;;;;5.63;3.55;;;;;;;11.09;71.65;99298.13;4895320;29;20043;-91
2022/09/07 17:08:14;;;;;;;4.13;2.47;;;;;;;11.24;71.81;99300.44;6213563;22;20095;-89
2022/09/07 19:16:45;;;;;;;15.35;4.57;;;;;;;10.77;71.69;99308.31;6246952;22;20027;-93
2022/09/07 19:24:17;;;;;;;11.98;4.85;;;;;;;10.83;70.98;99337.13;6246798;23;20014;-93
2022/09/07 19:29:22;;;;;;;12.05;4.53;;;;;;;10.43;71.68;99298.81;6159541;23;20017;-92
2022/09/07 19:38:07;;;;;;;9.00;4.00;;;;;;;10.38;71.50;99279.00;6156255;23;20010;-90
2022/09/07 19:52:38;;;;;;;5.40;4.30;;;;;;;10.47;71.48;99305.25;6268859;22;20097;-95
2022/09/07 19:55:06;;;;;;;;;;;;;;;10.72;71.76;99360.38;6228661;22;20019;-90
2022/09/07 19:57:33;;;;;;;6.93;3.95;;;;;;;10.56;71.92;99341.66;6201825;22;19915;-96
2022/09/07 20:00:00;;;;;;;6.97;3.78;;;;;;;10.60;71.95;99341.03;6225466;22;20015;-94
2022/09/07 20:02:26;;;;;;;6.10;3.53;;;;;;;10.54;71.87;99332.94;6202553;22;20092;-93
2022/09/07 20:04:53;;;;;;;5.90;3.38;;;;;;;10.39;72.20;99310.66;6200238;22;20011;-92
2022/09/07 20:10:04;;;;;;;7.75;3.75;;;;;;;10.64;72.18;99336.53;6252317;22;20038;-93
2022/09/07 20:12:37;;;;;;;7.70;4.10;;;;;;;10.75;71.78;99348.81;6209300;22;20012;-93
2022/09/07 20:15:06;;;;;;;7.85;4.30;;;;;;;10.32;72.02;99276.38;6227682;22;20043;-93
2022/09/07 20:17:32;;;;;;;16.85;4.53;;;;;;;10.39;71.98;99292.31;6225441;22;20020;-96
2022/09/07 20:27:52;;;;;;;14.25;5.57;;;;;;;10.39;71.70;99278.66;6278135;22;20097;-90
2022/09/07 20:30:18;;;;;;;15.43;4.67;;;;;;;10.71;71.61;99317.75;6201000;22;20019;-94
2022/09/07 20:32:45;;;;;;;7.47;4.50;;;;;;;10.54;71.68;99285.69;6225521;22;20250;-94
2022/09/07 20:35:11;;;;;;;11.37;4.37;;;;;;;10.64;71.88;99309.22;6200173;22;20465;-95
2022/09/07 20:37:37;;;;;;;9.03;4.63;;;;;;;10.73;71.74;99313.59;6199865;22;20257;-92
2022/09/07 20:40:05;;;;;;;11.57;4.77;;;;;;;10.54;71.25;99281.00;6199764;22;20020;-92
2022/09/07 20:42:31;;;;;;;10.43;4.47;;;;;;;10.76;71.20;99309.41;6200039;22;20020;-92
2022/09/07 20:45:01;;;;;;;8.93;4.10;;;;;;;10.72;71.65;99309.22;6199188;22;20035;-93
2022/09/07 20:47:33;;;;;;;6.97;4.43;;;;;;;10.46;71.46;99273.59;6251925;22;20513;-94
2022/09/07 20:59:06;;;;;;;8.20;4.37;;;;;;;10.87;72.09;99318.97;6247838;22;20112;-89
2022/09/07 21:01:33;;;;;;;8.63;4.53;;;;;;;10.73;72.60;99323.72;6222051;23;20012;-94
2022/09/07 21:04:04;;;;;;;8.57;4.00;;;;;;;10.74;72.68;99328.88;6246092;22;20039;-95
2022/09/07 21:06:32;;;;;;;8.30;4.47;;;;;;;10.67;72.97;99334.00;6194195;23;20345;-93
2022/09/07 21:08:57;;;;;;;;;;;;;;;10.77;73.08;99336.44;6220374;23;20047;-89